< < Back
Terminal Aerodrome Forecast


Current Version              Previous Versions:   1  2  3  4  5  6  7  8  9  

Terminal Aerodrome Forecast

499
FTUS42 KTAE 282300
TAFABY
TAF
KABY 282320Z 2900/2924 00000KT P6SM SKC
     FM291600 17005KT P6SM SKC=

Latest METAR

604
SAUS70 KWBC 290200 RRK
MTRABY
METAR KABY 290153Z 00000KT 10SM CLR 03/01 A3034 RMK AO2 SLP277 T00330006
PWINO $


USA.gov is the U.S. government's official web portal to all federal, state and local government web resources and services.